createdAt,value
2023-09-21T00:01:07.902Z,2.50
2023-09-21T00:03:38.680Z,3.13
2023-09-21T00:06:06.450Z,1.77
2023-09-21T00:08:34.017Z,2.83
2023-09-21T00:11:02.255Z,3.47
2023-09-21T00:13:30.212Z,3.50
2023-09-21T00:16:03.515Z,2.60
2023-09-21T00:18:30.880Z,2.80
2023-09-21T00:21:02.111Z,2.22
2023-09-21T00:23:29.003Z,2.55
2023-09-21T00:26:01.381Z,2.30
2023-09-21T00:28:29.392Z,2.53
2023-09-21T00:30:58.785Z,2.13
2023-09-21T00:33:34.267Z,2.55
2023-09-21T00:36:01.614Z,2.83
2023-09-21T00:38:28.625Z,3.20
2023-09-21T00:41:00.023Z,3.10
2023-09-21T00:43:26.718Z,3.17
2023-09-21T00:45:55.647Z,3.22
2023-09-21T00:48:27.046Z,2.90
2023-09-21T00:50:56.031Z,3.50
2023-09-21T00:53:23.796Z,3.40
2023-09-21T00:55:59.580Z,1.70
2023-09-21T00:58:26.963Z,2.42
2023-09-21T01:00:55.914Z,2.67
2023-09-21T01:03:24.258Z,3.33
2023-09-21T01:05:51.568Z,2.65
2023-09-21T01:08:21.305Z,3.40
2023-09-21T01:10:50.880Z,3.00
2023-09-21T01:13:19.668Z,2.50
2023-09-21T01:16:12.288Z,3.75
2023-09-21T01:18:43.189Z,3.78
2023-09-21T01:21:11.531Z,3.47
2023-09-21T01:23:47.100Z,3.78
2023-09-21T01:26:17.805Z,2.83
2023-09-21T01:28:47.363Z,3.50
2023-09-21T01:31:14.600Z,3.17
2023-09-21T01:33:43.383Z,3.28
2023-09-21T01:36:12.139Z,2.28
2023-09-21T01:38:47.149Z,2.60
2023-09-21T01:41:16.045Z,2.65
2023-09-21T01:43:43.116Z,3.22
2023-09-21T01:46:10.463Z,2.20
2023-09-21T01:48:38.192Z,2.20
2023-09-21T01:51:06.825Z,2.97
2023-09-21T01:53:34.071Z,2.13
2023-09-21T01:56:01.083Z,2.80
2023-09-21T01:58:27.695Z,3.83
2023-09-21T02:00:54.364Z,3.20
2023-09-21T02:03:29.555Z,3.17
2023-09-21T02:05:59.533Z,2.50
2023-09-21T02:08:27.252Z,1.60
2023-09-21T02:10:54.147Z,2.63
2023-09-21T02:13:21.723Z,4.20
2023-09-21T02:15:52.491Z,4.15
2023-09-21T02:18:20.492Z,3.63
2023-09-21T02:20:53.791Z,2.75
2023-09-21T02:23:23.226Z,3.60
2023-09-21T02:25:50.162Z,2.50
2023-09-21T02:28:16.986Z,3.13
2023-09-21T02:30:48.745Z,5.05
2023-09-21T02:33:19.171Z,3.63
2023-09-21T02:35:48.781Z,4.82
2023-09-21T02:38:18.280Z,4.13
2023-09-21T02:40:44.860Z,4.38
2023-09-21T02:43:11.406Z,3.10
2023-09-21T02:45:38.352Z,3.90
2023-09-21T02:48:06.556Z,3.33
2023-09-21T02:50:33.614Z,3.70
2023-09-21T02:53:11.895Z,2.95
2023-09-21T02:55:40.157Z,4.57
2023-09-21T02:58:12.265Z,4.15
2023-09-21T03:00:46.741Z,4.78
2023-09-21T03:03:16.434Z,5.30
2023-09-21T03:05:49.571Z,5.22
2023-09-21T03:08:17.876Z,4.75
2023-09-21T03:10:46.510Z,3.80
2023-09-21T03:13:20.596Z,1.77
2023-09-21T03:15:49.845Z,3.30
2023-09-21T03:18:17.988Z,4.45
2023-09-21T03:20:45.741Z,3.78
2023-09-21T03:23:14.542Z,4.75
2023-09-21T03:25:44.312Z,3.88
2023-09-21T03:28:16.776Z,4.53
2023-09-21T03:30:45.095Z,4.57
2023-09-21T03:33:12.545Z,5.05
2023-09-21T03:35:39.745Z,4.93
2023-09-21T03:38:07.573Z,4.80
2023-09-21T03:40:34.899Z,4.53
2023-09-21T03:43:02.109Z,3.63
2023-09-21T03:45:28.752Z,4.78
2023-09-21T03:47:56.602Z,3.55
2023-09-21T03:50:26.685Z,4.85
2023-09-21T03:52:56.181Z,3.88
2023-09-21T03:55:23.278Z,3.28
2023-09-21T03:57:49.911Z,4.85
2023-09-21T04:00:27.520Z,3.85
2023-09-21T04:02:55.165Z,2.60
2023-09-21T04:05:25.785Z,2.45
2023-09-21T04:07:52.919Z,3.95
2023-09-21T04:10:19.546Z,2.80
2023-09-21T04:12:46.105Z,4.53
2023-09-21T04:15:13.261Z,2.95
2023-09-21T04:17:43.390Z,3.70
2023-09-21T04:20:14.322Z,3.55
2023-09-21T04:22:42.438Z,4.30
2023-09-21T04:25:11.180Z,2.75
2023-09-21T04:27:40.297Z,3.38
2023-09-21T04:30:09.637Z,3.83
2023-09-21T04:32:40.133Z,3.85
2023-09-21T04:35:07.471Z,4.72
2023-09-21T04:37:35.409Z,3.72
2023-09-21T04:40:12.976Z,4.47
2023-09-21T04:42:41.321Z,4.90
2023-09-21T04:45:12.473Z,4.15
2023-09-21T04:47:50.816Z,4.88
2023-09-21T04:50:18.748Z,3.03
2023-09-21T04:52:46.650Z,4.25
2023-09-21T04:55:17.237Z,4.25
2023-09-21T04:57:44.942Z,3.28
2023-09-21T05:00:17.411Z,2.95
2023-09-21T05:02:45.002Z,2.95
2023-09-21T05:05:12.564Z,3.55
2023-09-21T05:07:39.252Z,2.00
2023-09-21T05:10:08.322Z,3.53
2023-09-21T05:12:35.631Z,2.70
2023-09-21T05:17:34.604Z,1.98
2023-09-21T05:20:01.255Z,2.63
2023-09-21T05:22:27.835Z,2.25
2023-09-21T05:24:54.413Z,2.70
2023-09-21T05:27:22.455Z,2.90
2023-09-21T05:29:49.170Z,3.13
2023-09-21T05:32:16.435Z,3.15
2023-09-21T05:34:43.234Z,2.63
2023-09-21T05:37:09.939Z,3.13
2023-09-21T05:39:37.007Z,2.60
2023-09-21T05:42:05.622Z,3.03
2023-09-21T05:44:32.244Z,3.00
2023-09-21T05:46:58.820Z,2.22
2023-09-21T05:49:25.400Z,2.58
2023-09-21T05:51:57.492Z,2.70
2023-09-21T05:54:25.286Z,3.55
2023-09-21T05:56:53.276Z,2.28
2023-09-21T05:59:20.515Z,2.30
2023-09-21T06:01:47.321Z,2.63
2023-09-21T06:04:14.084Z,2.25
2023-09-21T06:06:40.760Z,2.33
2023-09-21T06:09:09.066Z,2.55
2023-09-21T06:11:35.643Z,2.15
2023-09-21T06:14:03.681Z,2.90
2023-09-21T06:16:30.462Z,2.05
2023-09-21T06:18:57.134Z,2.22
2023-09-21T06:21:23.815Z,2.88
2023-09-21T06:23:51.746Z,2.35
2023-09-21T06:26:19.856Z,2.22
2023-09-21T06:28:49.928Z,4.10
2023-09-21T06:31:17.613Z,2.20
2023-09-21T06:33:44.281Z,2.30
2023-09-21T06:36:21.656Z,2.97
2023-09-21T06:38:48.785Z,2.17
2023-09-21T06:41:15.776Z,2.20
2023-09-21T06:43:45.781Z,1.60
2023-09-21T06:46:13.609Z,1.90
2023-09-21T06:48:43.280Z,1.63
2023-09-21T06:51:10.176Z,2.05
2023-09-21T06:53:37.508Z,1.98
2023-09-21T06:56:05.085Z,1.70
2023-09-21T06:58:36.684Z,1.85
2023-09-21T07:01:06.500Z,1.60
2023-09-21T07:03:36.109Z,1.60
2023-09-21T07:06:03.021Z,2.00
2023-09-21T07:08:29.681Z,1.80
2023-09-21T07:10:56.516Z,1.42
2023-09-21T07:13:23.110Z,1.23
2023-09-21T07:15:50.129Z,1.52
2023-09-21T07:18:17.534Z,1.50
2023-09-21T07:20:44.579Z,1.52
2023-09-21T07:23:11.444Z,1.48
2023-09-21T07:25:38.708Z,2.00
2023-09-21T07:28:06.023Z,1.73
2023-09-21T07:30:34.642Z,1.15
2023-09-21T07:33:02.243Z,1.38
2023-09-21T07:35:29.688Z,1.13
2023-09-21T07:37:57.113Z,1.45
2023-09-21T07:40:24.501Z,1.42
2023-09-21T07:42:52.400Z,1.30
2023-09-21T07:45:20.845Z,1.05
2023-09-21T07:47:48.098Z,1.10
2023-09-21T07:50:14.965Z,0.82
2023-09-21T07:52:41.609Z,1.25
2023-09-21T07:55:10.049Z,1.20
2023-09-21T07:57:41.129Z,1.00
2023-09-21T08:00:11.896Z,0.85
2023-09-21T08:02:38.562Z,1.10
2023-09-21T08:05:11.341Z,1.13
2023-09-21T08:07:38.381Z,0.80
2023-09-21T08:10:06.109Z,1.40
2023-09-21T08:12:32.962Z,1.30
2023-09-21T08:15:01.111Z,1.20
2023-09-21T08:17:31.651Z,0.98
2023-09-21T08:19:58.469Z,1.00
2023-09-21T08:22:27.779Z,1.20
2023-09-21T08:24:54.599Z,0.90
2023-09-21T08:27:23.745Z,1.08
2023-09-21T08:29:51.320Z,1.20
2023-09-21T08:32:18.646Z,0.90
2023-09-21T08:34:45.481Z,1.20
2023-09-21T08:37:12.414Z,1.10
2023-09-21T08:39:39.378Z,1.00
2023-09-21T08:42:06.416Z,1.08
2023-09-21T08:44:33.596Z,0.60
2023-09-21T08:47:01.210Z,1.20
2023-09-21T08:49:28.425Z,1.13
2023-09-21T08:51:57.976Z,0.60
2023-09-21T08:54:25.189Z,0.95
2023-09-21T08:56:57.147Z,1.20
2023-09-21T08:59:25.935Z,0.90
2023-09-21T09:01:53.093Z,1.20
2023-09-21T09:04:21.227Z,0.90
2023-09-21T09:06:48.826Z,1.15
2023-09-21T09:09:17.248Z,1.00
2023-09-21T09:11:46.357Z,1.00
2023-09-21T09:14:15.686Z,1.20
2023-09-21T09:16:42.750Z,1.02
2023-09-21T09:19:10.672Z,0.90
2023-09-21T09:21:37.943Z,1.20
2023-09-21T09:24:05.997Z,0.90
2023-09-21T09:26:32.679Z,0.98
2023-09-21T09:29:15.254Z,0.88
2023-09-21T09:31:43.277Z,0.80
2023-09-21T09:34:13.607Z,0.95
2023-09-21T09:36:42.522Z,0.80
2023-09-21T09:39:09.701Z,0.98
2023-09-21T09:41:36.942Z,1.00
2023-09-21T09:44:07.734Z,0.70
2023-09-21T09:46:36.715Z,0.90
2023-09-21T09:49:04.340Z,0.82
2023-09-21T09:51:46.691Z,0.88
2023-09-21T09:54:14.352Z,0.87
2023-09-21T09:56:44.407Z,0.90
2023-09-21T09:59:12.906Z,0.93
2023-09-21T10:01:40.644Z,0.90
2023-09-21T10:04:08.763Z,1.23
2023-09-21T10:06:37.897Z,0.73
2023-09-21T10:09:10.348Z,0.80
2023-09-21T10:11:40.790Z,1.25
2023-09-21T10:14:08.493Z,0.90
2023-09-21T10:16:40.218Z,1.00
2023-09-21T10:19:17.385Z,0.68
2023-09-21T10:21:46.847Z,1.08
2023-09-21T10:24:13.574Z,1.27
2023-09-21T10:26:45.219Z,0.77
2023-09-21T10:29:13.635Z,0.80
2023-09-21T10:31:45.101Z,0.90
2023-09-21T10:34:20.336Z,0.73
2023-09-21T10:36:53.473Z,0.90
2023-09-21T10:39:41.364Z,0.70
2023-09-21T10:42:08.184Z,0.68
2023-09-21T10:44:53.855Z,0.75
2023-09-21T10:47:51.157Z,0.88
2023-09-21T10:50:24.436Z,0.88
2023-09-21T10:52:53.060Z,0.88
2023-09-21T10:55:22.115Z,0.80
2023-09-21T10:57:50.778Z,0.88
2023-09-21T11:00:19.244Z,0.93
2023-09-21T11:02:51.115Z,0.70
2023-09-21T11:05:20.409Z,0.90
2023-09-21T11:07:49.190Z,0.85
2023-09-21T11:10:17.842Z,0.70
2023-09-21T11:12:46.431Z,0.98
2023-09-21T11:15:15.403Z,0.65
2023-09-21T11:17:44.409Z,1.10
2023-09-21T11:20:16.584Z,0.82
2023-09-21T11:22:49.453Z,0.95
2023-09-21T11:27:45.235Z,0.80
2023-09-21T11:30:14.441Z,0.98
2023-09-21T11:32:47.672Z,0.38
2023-09-21T11:35:18.685Z,0.70
2023-09-21T11:37:47.644Z,0.70
2023-09-21T11:40:15.874Z,0.70
2023-09-21T11:42:47.215Z,0.70
2023-09-21T11:45:17.699Z,0.77
2023-09-21T11:47:56.518Z,0.80
2023-09-21T11:50:33.156Z,1.08
2023-09-21T11:53:00.326Z,0.93
2023-09-21T11:55:31.075Z,0.90
2023-09-21T11:58:08.752Z,0.95
2023-09-21T12:00:49.096Z,0.93
2023-09-21T12:03:19.396Z,0.65
2023-09-21T12:05:46.446Z,0.65
2023-09-21T12:08:17.878Z,0.82
2023-09-21T12:10:48.607Z,0.50
2023-09-21T12:13:15.834Z,0.82
2023-09-21T12:15:43.233Z,0.57
2023-09-21T12:18:15.903Z,0.90
2023-09-21T12:20:46.320Z,0.65
2023-09-21T12:23:13.892Z,0.90
2023-09-21T12:25:41.217Z,0.70
2023-09-21T12:28:10.306Z,0.52
2023-09-21T12:30:39.203Z,0.40
2023-09-21T12:33:07.775Z,0.60
2023-09-21T12:35:34.892Z,0.50
2023-09-21T12:38:01.509Z,0.70
2023-09-21T12:40:28.716Z,0.90
2023-09-21T12:42:55.885Z,0.90
2023-09-21T12:45:22.733Z,1.33
2023-09-21T12:47:49.563Z,0.90
2023-09-21T12:50:17.476Z,0.77
2023-09-21T12:52:44.669Z,1.00
2023-09-21T12:55:12.041Z,0.93
2023-09-21T12:57:42.140Z,0.80
2023-09-21T13:00:20.182Z,0.80
2023-09-21T13:02:47.463Z,0.70
2023-09-21T13:05:14.623Z,0.85
2023-09-21T13:07:45.575Z,0.73
2023-09-21T13:10:16.098Z,0.90
2023-09-21T13:12:43.468Z,1.20
2023-09-21T13:15:10.507Z,1.05
2023-09-21T13:17:38.047Z,0.88
2023-09-21T13:20:06.008Z,1.23
2023-09-21T13:22:36.185Z,1.08
2023-09-21T13:25:03.154Z,0.77
2023-09-21T13:27:32.616Z,1.02
2023-09-21T13:29:59.148Z,0.88
2023-09-21T13:32:26.626Z,0.82
2023-09-21T13:34:55.430Z,1.17
2023-09-21T13:37:22.159Z,0.77
2023-09-21T13:39:49.328Z,1.63
2023-09-21T13:42:16.295Z,1.35
2023-09-21T13:44:42.904Z,1.00
2023-09-21T13:47:09.540Z,1.20
2023-09-21T13:49:36.482Z,0.77
2023-09-21T13:52:03.951Z,1.10
2023-09-21T13:54:31.238Z,1.23
2023-09-21T13:56:57.920Z,1.10
2023-09-21T13:59:24.583Z,1.00
2023-09-21T14:01:51.357Z,1.08
2023-09-21T14:04:18.314Z,0.98
2023-09-21T14:06:45.248Z,1.00
2023-09-21T14:09:11.980Z,1.13
2023-09-21T14:11:38.625Z,0.60
2023-09-21T14:14:06.177Z,1.10
2023-09-21T14:16:32.975Z,0.63
2023-09-21T14:18:59.703Z,0.90
2023-09-21T14:21:27.328Z,1.13
2023-09-21T14:23:53.971Z,1.40
2023-09-21T14:26:20.834Z,0.98
2023-09-21T14:28:47.538Z,0.90
2023-09-21T14:31:14.351Z,1.27
2023-09-21T14:33:41.141Z,1.08
2023-09-21T14:36:09.829Z,0.80
2023-09-21T14:38:36.576Z,0.80
2023-09-21T14:41:03.957Z,1.00
2023-09-21T14:43:30.561Z,1.00
2023-09-21T14:45:57.234Z,0.63
2023-09-21T14:48:24.219Z,1.23
2023-09-21T14:50:50.822Z,1.40
2023-09-21T14:53:17.417Z,1.10
2023-09-21T14:55:44.243Z,1.08
2023-09-21T14:58:11.902Z,1.02
2023-09-21T15:00:39.422Z,1.08
2023-09-21T15:03:06.295Z,1.08
2023-09-21T15:05:32.998Z,1.15
2023-09-21T15:08:12.757Z,1.00
2023-09-21T15:10:40.498Z,1.20
2023-09-21T15:13:07.128Z,1.48
2023-09-21T15:15:33.770Z,0.95
2023-09-21T15:18:00.632Z,1.45
2023-09-21T15:20:28.178Z,1.33
2023-09-21T15:22:55.072Z,1.17
2023-09-21T15:25:22.021Z,1.00
2023-09-21T15:27:48.622Z,1.13
2023-09-21T15:30:15.953Z,1.02
2023-09-21T15:32:43.025Z,1.13
2023-09-21T15:35:12.544Z,1.00
2023-09-21T15:37:39.071Z,0.88
2023-09-21T15:40:06.379Z,1.00
2023-09-21T15:42:33.255Z,0.85
2023-09-21T15:45:00.122Z,1.00
2023-09-21T15:47:26.992Z,0.77
2023-09-21T15:49:53.862Z,0.80
2023-09-21T15:52:20.591Z,0.60
2023-09-21T15:54:47.595Z,0.95
2023-09-21T15:57:14.566Z,0.88
2023-09-21T15:59:41.875Z,0.55
2023-09-21T16:02:10.511Z,0.65
2023-09-21T16:04:37.827Z,0.82
2023-09-21T16:07:05.177Z,0.77
2023-09-21T16:09:31.948Z,0.88
2023-09-21T16:11:58.765Z,0.80
2023-09-21T16:14:25.630Z,0.80
2023-09-21T16:16:52.453Z,0.85
2023-09-21T16:19:19.246Z,0.90
2023-09-21T16:21:45.890Z,0.68
2023-09-21T16:24:13.052Z,0.73
2023-09-21T16:26:39.804Z,0.55
2023-09-21T16:29:07.222Z,0.75
2023-09-21T16:31:34.049Z,0.60
2023-09-21T16:34:00.746Z,0.77
2023-09-21T16:36:27.545Z,0.57
2023-09-21T16:38:54.401Z,1.45
2023-09-21T16:41:21.363Z,0.73
2023-09-21T16:43:48.377Z,0.82
2023-09-21T16:46:39.587Z,0.82
2023-09-21T16:49:03.155Z,0.90
2023-09-21T16:51:29.792Z,0.75
2023-09-21T16:53:59.188Z,0.70
2023-09-21T16:56:25.815Z,1.02
2023-09-21T16:58:54.144Z,1.30
2023-09-21T17:01:20.887Z,0.80
2023-09-21T17:03:47.752Z,0.90
2023-09-21T17:06:14.765Z,0.55
2023-09-21T17:08:41.408Z,0.43
2023-09-21T17:11:08.018Z,0.80
2023-09-21T17:13:34.615Z,0.55
2023-09-21T17:16:01.263Z,0.50
2023-09-21T17:18:27.930Z,1.17
2023-09-21T17:20:54.640Z,0.80
2023-09-21T17:23:21.228Z,0.40
2023-09-21T17:25:48.699Z,0.57
2023-09-21T17:28:15.444Z,1.00
2023-09-21T17:30:42.457Z,0.32
2023-09-21T17:33:09.218Z,0.43
2023-09-21T17:35:37.286Z,0.40
2023-09-21T17:38:04.205Z,0.60
2023-09-21T17:40:30.933Z,0.68
2023-09-21T17:42:57.511Z,1.20
2023-09-21T17:45:24.137Z,0.80
2023-09-21T17:47:50.979Z,0.90
2023-09-21T17:50:18.063Z,0.80
2023-09-21T17:52:44.758Z,0.75
2023-09-21T17:55:12.077Z,0.90
2023-09-21T17:57:38.867Z,0.45
2023-09-21T18:00:07.483Z,0.50
2023-09-21T18:02:37.368Z,0.60
2023-09-21T18:05:05.180Z,0.50
2023-09-21T18:07:32.326Z,0.57
2023-09-21T18:09:58.885Z,0.50
2023-09-21T18:12:25.964Z,0.75
2023-09-21T18:14:52.611Z,1.10
2023-09-21T18:17:19.209Z,0.77
2023-09-21T18:19:45.775Z,0.60
2023-09-21T18:22:13.438Z,0.60
2023-09-21T18:24:40.139Z,0.65
2023-09-21T18:27:06.846Z,1.15
2023-09-21T18:29:34.064Z,0.50
2023-09-21T18:32:01.625Z,0.93
2023-09-21T18:34:28.408Z,0.50
2023-09-21T18:36:54.983Z,0.68
2023-09-21T18:39:21.638Z,0.50
2023-09-21T18:41:48.755Z,0.60
2023-09-21T18:44:15.323Z,0.40
2023-09-21T18:46:42.568Z,0.43
2023-09-21T18:49:09.286Z,0.50
2023-09-21T18:51:36.031Z,0.68
2023-09-21T18:54:02.750Z,0.20
2023-09-21T18:56:29.640Z,0.40
2023-09-21T18:58:57.634Z,0.70
2023-09-21T19:01:25.243Z,0.70
2023-09-21T19:03:54.883Z,0.40
2023-09-21T19:06:25.423Z,0.40
2023-09-21T19:08:52.852Z,0.60
2023-09-21T19:11:20.579Z,0.75
2023-09-21T19:13:47.650Z,0.60
2023-09-21T19:16:14.737Z,0.70
2023-09-21T19:18:41.776Z,0.63
2023-09-21T19:21:09.719Z,0.30
2023-09-21T19:23:36.893Z,0.45
2023-09-21T19:26:04.800Z,0.70
2023-09-21T19:28:32.396Z,0.55
2023-09-21T19:31:00.656Z,0.70
2023-09-21T19:33:28.215Z,0.60
2023-09-21T19:35:55.637Z,0.68
2023-09-21T19:38:22.924Z,0.55
2023-09-21T19:40:49.666Z,0.85
2023-09-21T19:43:16.688Z,0.80
2023-09-21T19:45:43.482Z,0.57
2023-09-21T19:48:10.302Z,1.05
2023-09-21T19:50:37.409Z,0.50
2023-09-21T19:53:05.627Z,0.60
2023-09-21T19:55:32.556Z,0.63
2023-09-21T19:57:59.481Z,0.70
2023-09-21T20:00:26.627Z,0.73
2023-09-21T20:02:53.392Z,0.93
2023-09-21T20:05:20.431Z,1.05
2023-09-21T20:07:47.427Z,0.50
2023-09-21T20:10:14.112Z,0.38
2023-09-21T20:12:40.927Z,0.60
2023-09-21T20:15:09.978Z,0.65
2023-09-21T20:17:36.818Z,0.70
2023-09-21T20:20:03.779Z,1.10
2023-09-21T20:22:32.429Z,0.57
2023-09-21T20:24:59.102Z,0.77
2023-09-21T20:27:25.862Z,0.63
2023-09-21T20:29:52.533Z,0.80
2023-09-21T20:32:19.231Z,0.70
2023-09-21T20:34:45.794Z,0.70
2023-09-21T20:37:12.501Z,0.85
2023-09-21T20:39:39.109Z,1.05
2023-09-21T20:42:05.802Z,0.60
2023-09-21T20:44:33.869Z,1.48
2023-09-21T20:47:00.942Z,0.80
2023-09-21T20:49:28.975Z,0.93
2023-09-21T20:51:55.602Z,0.70
2023-09-21T20:54:23.843Z,0.88
2023-09-21T20:56:51.467Z,0.75
2023-09-21T20:59:18.090Z,0.40
2023-09-21T21:01:44.836Z,1.08
2023-09-21T21:04:12.150Z,0.60
2023-09-21T21:06:38.947Z,0.55
2023-09-21T21:09:06.528Z,0.63
2023-09-21T21:11:33.430Z,0.50
2023-09-21T21:14:00.748Z,0.90
2023-09-21T21:16:28.707Z,0.40
2023-09-21T21:18:55.394Z,0.40
2023-09-21T21:21:22.056Z,0.45
2023-09-21T21:23:48.656Z,0.95
2023-09-21T21:26:15.236Z,0.98
2023-09-21T21:28:42.123Z,0.60
2023-09-21T21:31:08.814Z,0.40
2023-09-21T21:33:35.468Z,0.50
2023-09-21T21:36:02.690Z,0.47
2023-09-21T21:38:29.286Z,0.80
2023-09-21T21:40:55.956Z,0.80
2023-09-21T21:43:22.609Z,0.50
2023-09-21T21:45:49.457Z,0.43
2023-09-21T21:48:16.191Z,0.45
2023-09-21T21:50:43.024Z,0.70
2023-09-21T21:53:09.629Z,0.70
2023-09-21T21:55:37.008Z,0.55
2023-09-21T21:58:03.745Z,0.68
2023-09-21T22:00:32.823Z,0.63
2023-09-21T22:02:59.972Z,0.57
2023-09-21T22:05:30.344Z,0.40
2023-09-21T22:07:58.348Z,0.55
2023-09-21T22:10:25.383Z,0.60
2023-09-21T22:12:53.868Z,0.47
2023-09-21T22:15:20.957Z,0.60
2023-09-21T22:17:47.781Z,0.68
2023-09-21T22:20:17.256Z,1.02
2023-09-21T22:22:47.199Z,1.10
2023-09-21T22:25:14.563Z,0.60
2023-09-21T22:27:41.381Z,0.77
2023-09-21T22:30:10.676Z,1.02
2023-09-21T22:32:38.316Z,0.93
2023-09-21T22:35:06.418Z,0.93
2023-09-21T22:37:35.556Z,0.73
2023-09-21T22:40:04.918Z,1.08
2023-09-21T22:42:46.568Z,0.70
2023-09-21T22:47:43.884Z,0.80
2023-09-21T22:50:15.005Z,0.68
2023-09-21T22:52:44.268Z,0.70
2023-09-21T22:55:10.935Z,0.85
2023-09-21T22:57:37.560Z,0.75
2023-09-21T23:00:08.191Z,1.10
2023-09-21T23:02:34.755Z,1.23
2023-09-21T23:05:01.986Z,0.70
2023-09-21T23:07:28.690Z,0.65
2023-09-21T23:09:55.602Z,0.50
2023-09-21T23:12:22.143Z,1.33
2023-09-21T23:14:48.739Z,0.55
2023-09-21T23:17:16.029Z,0.80
2023-09-21T23:19:42.609Z,1.00
2023-09-21T23:22:09.175Z,0.82
2023-09-21T23:24:35.783Z,1.25
2023-09-21T23:27:05.714Z,0.93
2023-09-21T23:29:32.423Z,0.50
2023-09-21T23:31:58.949Z,0.80
2023-09-21T23:34:26.775Z,0.98
2023-09-21T23:36:53.579Z,0.60
2023-09-21T23:39:20.547Z,0.80
2023-09-21T23:41:47.112Z,0.47
2023-09-21T23:44:15.178Z,0.47
2023-09-21T23:46:42.251Z,0.70
2023-09-21T23:49:09.381Z,0.70
2023-09-21T23:51:36.045Z,0.50
2023-09-21T23:54:07.397Z,0.55
2023-09-21T23:56:34.008Z,0.70
2023-09-21T23:59:00.617Z,0.43
